CheckWX is a tool to help pilots better visualize weather data.  It is not intended as a substitute for an official pre-flight weather briefing.

23:38:39 UTC

EGCC TAF
Manchester Airport
Manchester, United Kingdom
TAF EGCC 081652Z 0818/0924 07008KT 9999 BKN020 TEMPO 0818/0903 BKN012 TEMPO 0818/0906 7000 RA BECMG 0823/0902 BKN010 PROB30 TEMPO 0902/0906 2000 RADZ BKN002 BECMG 0909/0912 BKN018 TEMPO 0912/0924 BKN014

Jul-8@
18:00 UTC

Jul-8 @ 18:00 UTC

Jul-8@
23:00 UTC

Jul-8 @ 23:00 UTC

TAF EGCC 081652Z 0818/0924 07008KT 9999 BKN020

Expired

Wind
  • 070° at 8 KTS
Cloud Levels
  • Broken at 2,000' AGL

Jul-8@
18:00 UTC

Jul-8 @ 18:00 UTC

Jul-9@
03:00 UTC

Jul-9 @ 03:00 UTC

TEMPO 0818/0906 7000 RA

Expired

Cloud Levels
  • Broken at 1,200' AGL

Jul-8@
18:00 UTC

Jul-8 @ 18:00 UTC

Jul-9@
06:00 UTC

Jul-9 @ 06:00 UTC

TEMPO 0818/0906 7000 RA

Expired

Conditions
Rain
Cloud Levels

Jul-8@
23:00 UTC

Jul-8 @ 23:00 UTC

Jul-9@
09:00 UTC

Jul-9 @ 09:00 UTC

BECMG 0823/0902 BKN010

Expired

Wind
  • 070° at 8 KTS
Cloud Levels
  • Broken at 1,000' AGL

Jul-9@
02:00 UTC

Jul-9 @ 02:00 UTC

Jul-9@
06:00 UTC

Jul-9 @ 06:00 UTC

PROB30 TEMPO 0902/0906 2000 RADZ BKN002

Expired

Conditions
Rain, Drizzle
Cloud Levels
  • Broken at 200' AGL

Jul-9@
09:00 UTC

Jul-9 @ 09:00 UTC

Jul-10@
00:00 UTC

Jul-10 @ 00:00 UTC

BECMG 0909/0912 BKN018

Becoming

Becoming Conditions expected by Thu, Jul 9, 2020 @ 12:00 UTC

Wind
  • 070° at 8 KTS
Cloud Levels
  • Broken at 1,800' AGL

Jul-9@
12:00 UTC

Jul-9 @ 12:00 UTC

Jul-10@
00:00 UTC

Jul-10 @ 00:00 UTC

TEMPO 0912/0924 BKN014

Temporary

Temporary Changes expected for less than half the time period

Cloud Levels
  • Broken at 1,400' AGL